Time;durP1;ratioP1;P1;durP2;ratioP2;P2;SDS_P1;SDS_P2;PMS_P1;PMS_P2;Temp;Humidity;BMP_temperature;BMP_pressure;BME280_temperature;BME280_humidity;BME280_pressure;Samples;Min_cycle;Max_cycle;Signal;HPM_P1;HPM_P2
2021/08/12 00:01:45;;;;;;;2.58;1.35;;;;;;;16.40;82.43;101645.03;4856009;29;20030;-80
2021/08/12 00:04:11;;;;;;;3.83;1.65;;;;;;;16.38;82.78;101647.09;4845713;29;20034;-80
2021/08/12 00:06:37;;;;;;;3.25;1.50;;;;;;;16.42;82.58;101648.38;4843406;29;20030;-79
2021/08/12 00:09:02;;;;;;;3.15;1.52;;;;;;;16.39;82.23;101647.94;4864643;29;20052;-79
2021/08/12 00:11:28;;;;;;;4.60;1.40;;;;;;;16.37;81.59;101641.91;4863201;29;20108;-79
2021/08/12 00:13:53;;;;;;;2.47;1.33;;;;;;;16.43;81.27;101650.03;4859247;29;20033;-80
2021/08/12 00:16:19;;;;;;;4.88;1.50;;;;;;;16.40;80.86;101642.31;4846497;29;20041;-78
2021/08/12 00:18:44;;;;;;;4.32;1.60;;;;;;;16.41;80.93;101648.56;4873776;29;20632;-79
2021/08/12 00:21:10;;;;;;;3.53;1.50;;;;;;;16.34;81.07;101645.88;4859302;29;20448;-79
2021/08/12 00:23:35;;;;;;;3.42;1.67;;;;;;;16.39;80.97;101648.78;4873560;29;20105;-80
2021/08/12 00:26:00;;;;;;;3.22;1.38;;;;;;;16.36;80.87;101640.25;4867771;29;20188;-79
2021/08/12 00:28:26;;;;;;;3.22;1.38;;;;;;;16.35;80.41;101655.69;4842810;29;20030;-79
2021/08/12 00:30:51;;;;;;;2.95;1.40;;;;;;;16.29;80.67;101640.28;4842951;29;20062;-80
2021/08/12 00:33:17;;;;;;;4.13;1.30;;;;;;;16.29;80.38;101650.28;4842922;29;20133;-80
2021/08/12 00:35:42;;;;;;;5.07;1.33;;;;;;;16.27;80.50;101641.53;4842717;29;20381;-79
2021/08/12 00:38:08;;;;;;;3.88;1.15;;;;;;;16.17;80.63;101637.41;4851239;29;20093;-80
2021/08/12 00:40:34;;;;;;;3.45;1.40;;;;;;;16.24;81.00;101653.66;4852692;29;20438;-79
2021/08/12 00:42:59;;;;;;;6.13;1.40;;;;;;;16.24;81.28;101650.94;4838858;29;20057;-80
2021/08/12 00:45:25;;;;;;;3.17;1.48;;;;;;;16.31;81.82;101653.63;4845419;29;20029;-80
2021/08/12 00:47:50;;;;;;;4.55;2.05;;;;;;;16.27;81.99;101647.81;4825321;29;20121;-79
2021/08/12 00:50:17;;;;;;;6.20;1.75;;;;;;;16.29;82.53;101648.44;4841577;29;20072;-78
2021/08/12 00:52:43;;;;;;;4.70;1.63;;;;;;;16.31;82.95;101642.78;4849080;29;20053;-78
2021/08/12 00:55:09;;;;;;;6.45;1.58;;;;;;;16.29;83.58;101644.84;4845801;29;20038;-79
2021/08/12 00:57:35;;;;;;;4.55;1.70;;;;;;;16.34;83.94;101647.78;4844628;29;20040;-79
2021/08/12 01:00:02;;;;;;;6.80;1.80;;;;;;;16.32;83.93;101649.84;4844552;29;20030;-80
2021/08/12 01:02:28;;;;;;;5.32;1.60;;;;;;;16.31;83.92;101649.03;4823752;29;20038;-79
2021/08/12 01:04:53;;;;;;;8.55;1.85;;;;;;;16.33;84.01;101655.09;4808437;29;20039;-79
2021/08/12 01:07:28;;;;;;;3.45;1.80;;;;;;;16.33;83.85;101646.94;4849178;29;20129;-79
2021/08/12 01:10:00;;;;;;;2.65;1.58;;;;;;;16.33;83.93;101652.38;4860827;29;20034;-80
2021/08/12 01:12:46;;;;;;;3.08;1.60;;;;;;;16.32;84.10;101647.97;4863781;29;20061;-80
2021/08/12 01:15:20;;;;;;;3.83;1.50;;;;;;;16.22;84.12;101631.31;4847431;29;20104;-80
2021/08/12 01:17:55;;;;;;;6.15;1.80;;;;;;;16.31;84.61;101634.63;4844018;29;20101;-80
2021/08/12 01:20:30;;;;;;;4.22;1.50;;;;;;;16.35;84.35;101642.09;4845177;29;20076;-79
2021/08/12 01:22:59;;;;;;;3.85;1.60;;;;;;;16.36;84.87;101635.66;4843571;29;20041;-80
2021/08/12 01:25:26;;;;;;;3.20;1.40;;;;;;;16.44;84.56;101642.69;4845338;29;20042;-79
2021/08/12 01:27:54;;;;;;;5.80;1.50;;;;;;;16.42;84.81;101645.66;4843475;29;20112;-79
2021/08/12 01:30:25;;;;;;;2.90;1.50;;;;;;;16.42;84.86;101650.22;4856216;29;20029;-79
2021/08/12 01:33:15;;;;;;;8.10;1.70;;;;;;;16.42;84.56;101648.38;4862737;29;20060;-78
2021/08/12 01:35:41;;;;;;;7.30;1.60;;;;;;;16.41;84.76;101649.38;4860117;29;20041;-79
2021/08/12 01:38:15;;;;;;;2.50;1.50;;;;;;;16.38;84.83;101647.09;4872948;29;20025;-80
2021/08/12 01:40:42;;;;;;;4.03;1.50;;;;;;;16.37;84.97;101653.59;4862221;29;20033;-79
2021/08/12 01:43:15;;;;;;;5.47;1.65;;;;;;;16.26;85.23;101637.13;4845964;29;20030;-79
2021/08/12 01:45:47;;;;;;;4.45;1.77;;;;;;;16.30;85.23;101655.53;4842833;29;20069;-79
2021/08/12 01:48:12;;;;;;;5.43;2.03;;;;;;;16.19;85.48;101638.03;4843705;29;20098;-78
2021/08/12 01:50:39;;;;;;;5.93;1.67;;;;;;;16.15;85.87;101646.81;4851803;29;20423;-80
2021/08/12 01:53:05;;;;;;;3.28;1.48;;;;;;;16.12;85.96;101652.66;4863519;29;20034;-80
2021/08/12 01:55:32;;;;;;;4.28;1.70;;;;;;;16.04;85.96;101648.31;4862856;29;20500;-79
2021/08/12 01:57:59;;;;;;;6.60;1.60;;;;;;;16.02;86.27;101650.41;4847244;29;20048;-80
2021/08/12 02:00:28;;;;;;;5.00;1.50;;;;;;;15.95;86.53;101638.75;4853961;29;20065;-80
2021/08/12 02:02:54;;;;;;;6.47;1.77;;;;;;;15.97;86.63;101645.63;4843393;29;20553;-79
2021/08/12 02:05:21;;;;;;;7.22;1.88;;;;;;;16.01;86.82;101653.34;4843061;29;20040;-79
2021/08/12 02:07:48;;;;;;;5.88;1.83;;;;;;;16.03;87.29;101651.25;4847324;29;20100;-80
2021/08/12 02:10:15;;;;;;;8.23;2.03;;;;;;;16.01;87.11;101648.75;4861718;29;20029;-80
2021/08/12 02:12:41;;;;;;;5.22;1.90;;;;;;;16.06;87.42;101659.81;4841972;29;20046;-79
2021/08/12 02:15:07;;;;;;;5.30;2.00;;;;;;;16.04;87.40;101653.75;4844929;29;20030;-80
2021/08/12 02:17:33;;;;;;;6.75;2.10;;;;;;;16.08;88.06;101654.97;4826791;29;20099;-79
2021/08/12 02:20:04;;;;;;;5.15;1.85;;;;;;;15.99;88.20;101637.25;4844785;29;20069;-80
2021/08/12 02:22:36;;;;;;;6.20;2.00;;;;;;;16.08;87.92;101654.16;4844046;29;20394;-80
2021/08/12 02:25:07;;;;;;;6.20;1.92;;;;;;;16.11;88.10;101653.72;4844684;29;20343;-80
2021/08/12 02:27:39;;;;;;;4.15;2.05;;;;;;;16.08;88.35;101648.72;4843679;29;20037;-79
2021/08/12 02:30:05;;;;;;;5.13;1.80;;;;;;;16.14;88.59;101664.16;4843835;29;20084;-80
2021/08/12 02:32:32;;;;;;;5.15;2.00;;;;;;;16.14;88.45;101664.97;4841240;29;20053;-79
2021/08/12 02:34:58;;;;;;;3.53;1.73;;;;;;;16.13;88.56;101655.19;4844936;29;20057;-79
2021/08/12 02:37:26;;;;;;;6.63;2.13;;;;;;;16.11;89.20;101653.72;4841693;29;20178;-79
2021/08/12 02:39:52;;;;;;;5.20;1.98;;;;;;;16.15;88.72;101654.94;4852922;29;20033;-79
2021/08/12 02:42:19;;;;;;;3.92;1.70;;;;;;;16.21;89.02;101659.53;4845700;29;20033;-80
2021/08/12 02:44:47;;;;;;;7.32;2.30;;;;;;;16.16;88.98;101648.50;4858515;29;20033;-79
2021/08/12 02:47:14;;;;;;;3.50;1.70;;;;;;;16.07;89.18;101634.31;4861810;29;20322;-80
2021/08/12 02:49:43;;;;;;;3.92;2.00;;;;;;;15.97;89.09;101631.22;4862120;29;20029;-79
2021/08/12 02:52:11;;;;;;;3.00;1.80;;;;;;;16.09;89.41;101653.09;4854859;29;20026;-79
2021/08/12 02:54:37;;;;;;;4.30;2.00;;;;;;;16.07;89.79;101656.03;4843074;29;20034;-80
2021/08/12 02:57:03;;;;;;;5.45;2.00;;;;;;;16.06;90.03;101653.53;4840820;29;20434;-80
2021/08/12 02:59:29;;;;;;;4.97;2.20;;;;;;;15.92;90.07;101629.13;4843017;29;20113;-80
2021/08/12 03:01:55;;;;;;;7.47;2.13;;;;;;;16.05;90.12;101651.84;4843956;29;20117;-79
2021/08/12 03:04:22;;;;;;;6.10;2.35;;;;;;;16.05;90.05;101651.84;4841999;29;20042;-79
2021/08/12 03:06:54;;;;;;;7.18;2.13;;;;;;;16.02;90.04;101653.13;4841164;29;20040;-79
2021/08/12 03:09:21;;;;;;;5.18;2.38;;;;;;;16.01;90.48;101653.34;4843460;29;20418;-80
2021/08/12 03:11:47;;;;;;;5.13;2.15;;;;;;;15.93;90.85;101644.41;4842140;29;20418;-80
2021/08/12 03:14:14;;;;;;;5.55;2.15;;;;;;;15.93;91.11;101654.44;4842225;29;20500;-80
2021/08/12 03:16:40;;;;;;;8.10;2.40;;;;;;;15.94;91.18;101656.91;4843945;29;20040;-80
2021/08/12 03:19:05;;;;;;;5.78;2.17;;;;;;;15.90;91.49;101647.53;4849582;29;20022;-80
2021/08/12 03:21:31;;;;;;;3.92;2.30;;;;;;;15.82;91.38;101642.31;4841304;29;20044;-80
2021/08/12 03:24:01;;;;;;;5.25;2.50;;;;;;;15.85;91.56;101654.66;4842645;29;20076;-79
2021/08/12 03:26:27;;;;;;;5.18;2.55;;;;;;;15.82;92.02;101645.03;4841862;29;20025;-80
2021/08/12 03:28:53;;;;;;;3.83;2.20;;;;;;;15.76;92.10;101632.34;4826912;29;20434;-79
2021/08/12 03:31:18;;;;;;;4.65;2.30;;;;;;;15.83;92.13;101646.72;4855791;29;20132;-78
2021/08/12 03:33:44;;;;;;;6.18;2.53;;;;;;;15.78;92.27;101634.84;4860158;29;20064;-80
2021/08/12 03:36:09;;;;;;;5.72;2.30;;;;;;;15.84;92.29;101647.56;4829980;29;20461;-80
2021/08/12 03:38:35;;;;;;;4.45;2.33;;;;;;;15.87;92.18;101650.69;4843169;29;20033;-79
2021/08/12 03:41:00;;;;;;;5.28;2.50;;;;;;;15.85;92.27;101643.78;4825429;29;20037;-79
2021/08/12 03:43:26;;;;;;;5.18;2.42;;;;;;;15.86;92.71;101649.03;4825486;29;20094;-80
2021/08/12 03:45:51;;;;;;;6.18;2.80;;;;;;;15.84;92.88;101647.56;4842919;29;20030;-79
2021/08/12 03:48:17;;;;;;;9.52;2.50;;;;;;;15.82;92.83;101652.34;4840398;29;20030;-79
2021/08/12 03:50:42;;;;;;;5.57;2.53;;;;;;;15.77;92.67;101635.88;4842387;29;20034;-79
2021/08/12 03:53:07;;;;;;;5.30;2.63;;;;;;;15.86;92.81;101654.44;4841229;29;20057;-79
2021/08/12 03:55:33;;;;;;;9.85;2.50;;;;;;;15.83;92.57;101646.72;4843655;29;20034;-78
2021/08/12 03:57:59;;;;;;;5.93;2.40;;;;;;;15.92;92.91;101656.28;4845714;29;20026;-80
2021/08/12 04:00:24;;;;;;;4.72;2.58;;;;;;;15.95;92.58;101664.00;4861372;29;20041;-79
2021/08/12 04:02:50;;;;;;;5.53;2.45;;;;;;;16.00;92.78;101671.53;4861464;29;20037;-80
2021/08/12 04:05:15;;;;;;;5.40;2.63;;;;;;;16.04;92.76;101670.03;4859421;29;20086;-79
2021/08/12 04:07:41;;;;;;;5.90;2.30;;;;;;;16.07;92.37;101668.78;4860231;29;20372;-80
2021/08/12 04:10:06;;;;;;;4.13;2.40;;;;;;;16.08;92.62;101671.25;4844319;29;20061;-79
2021/08/12 04:12:32;;;;;;;7.45;2.67;;;;;;;16.12;92.61;101672.50;4836867;29;20372;-79
2021/08/12 04:14:58;;;;;;;7.10;2.65;;;;;;;16.13;92.74;101668.75;4841849;29;20487;-79
2021/08/12 04:17:23;;;;;;;3.47;2.38;;;;;;;16.12;92.79;101668.94;4840735;29;20368;-80
2021/08/12 04:19:49;;;;;;;7.13;2.40;;;;;;;16.17;92.99;101669.16;4858801;29;20041;-80
2021/08/12 04:22:15;;;;;;;5.15;2.38;;;;;;;16.26;92.36;101667.00;4861442;29;20030;-79
2021/08/12 04:24:40;;;;;;;6.35;2.38;;;;;;;16.35;91.78;101671.97;4860142;29;20174;-79
2021/08/12 04:27:06;;;;;;;4.25;2.20;;;;;;;16.46;91.89;101667.78;4856831;29;20029;-79
2021/08/12 04:29:31;;;;;;;5.18;2.38;;;;;;;16.67;90.80;101674.75;4826977;29;20034;-79
2021/08/12 04:31:56;;;;;;;5.93;2.30;;;;;;;16.83;90.40;101668.00;4825720;29;20151;-80
2021/08/12 04:34:23;;;;;;;6.30;2.47;;;;;;;16.87;90.28;101669.22;4856272;29;20072;-80
2021/08/12 04:36:48;;;;;;;6.65;2.10;;;;;;;16.87;90.48;101664.59;4849330;29;20030;-80
2021/08/12 04:39:14;;;;;;;3.90;2.20;;;;;;;17.11;89.49;101662.13;4842420;29;20486;-80
2021/08/12 04:41:39;;;;;;;4.47;2.47;;;;;;;17.42;88.04;101660.38;4845548;29;20038;-80
2021/08/12 04:44:05;;;;;;;5.18;2.45;;;;;;;18.01;85.61;101656.25;4830120;29;20042;-80
2021/08/12 04:46:31;;;;;;;3.60;2.10;;;;;;;18.55;83.46;101663.50;4844015;29;20034;-79
2021/08/12 04:48:56;;;;;;;4.53;2.30;;;;;;;18.32;84.07;101666.13;4846541;29;20033;-80
2021/08/12 04:51:22;;;;;;;4.63;2.35;;;;;;;18.03;85.55;101667.75;4843676;29;20082;-80
2021/08/12 04:53:47;;;;;;;6.15;2.10;;;;;;;17.81;86.49;101672.81;4829801;29;20137;-79
2021/08/12 04:56:12;;;;;;;6.32;2.22;;;;;;;17.67;86.66;101658.47;4843828;29;20038;-80
2021/08/12 04:58:38;;;;;;;4.38;2.10;;;;;;;17.70;87.05;101673.53;4844118;29;20046;-79
2021/08/12 05:01:03;;;;;;;3.67;2.30;;;;;;;17.69;87.39;101677.31;4843673;29;20038;-80
2021/08/12 05:03:29;;;;;;;4.75;2.30;;;;;;;17.59;87.64;101681.38;4846496;29;20457;-79
2021/08/12 05:06:05;;;;;;;5.38;2.40;;;;;;;17.50;87.82;101679.16;4844583;29;20072;-80
2021/08/12 05:08:31;;;;;;;5.22;2.30;;;;;;;17.48;88.07;101675.81;4845210;29;20046;-80
2021/08/12 05:10:57;;;;;;;5.00;2.10;;;;;;;17.44;88.25;101663.72;4844403;29;20061;-79
2021/08/12 05:13:23;;;;;;;6.82;2.20;;;;;;;17.46;88.13;101678.78;4842405;29;20046;-79
2021/08/12 05:15:49;;;;;;;4.10;2.15;;;;;;;17.48;88.17;101682.13;4846203;29;20108;-79
2021/08/12 05:18:14;;;;;;;5.88;2.30;;;;;;;17.47;88.45;101671.44;4844395;29;20030;-79
2021/08/12 05:20:39;;;;;;;5.57;2.20;;;;;;;17.50;88.51;101679.16;4843287;29;20042;-80
2021/08/12 05:23:05;;;;;;;3.97;2.13;;;;;;;17.49;88.13;101681.06;4828931;29;20042;-80
2021/08/12 05:25:30;;;;;;;4.20;1.98;;;;;;;17.54;88.23;101677.66;4853998;29;20049;-79
2021/08/12 05:27:56;;;;;;;3.92;2.20;;;;;;;17.59;87.90;101684.09;4846489;29;20045;-79
2021/08/12 05:30:22;;;;;;;4.13;2.20;;;;;;;17.61;88.11;101687.44;4855871;29;20033;-79
2021/08/12 05:32:48;;;;;;;6.32;2.30;;;;;;;17.65;87.79;101695.13;4839115;29;20083;-79
2021/08/12 05:35:13;;;;;;;4.43;2.17;;;;;;;17.61;87.99;101683.88;4830707;29;20038;-80
2021/08/12 05:37:38;;;;;;;4.03;1.80;;;;;;;17.74;87.44;101702.78;4843811;29;20416;-79
2021/08/12 05:40:05;;;;;;;3.75;1.88;;;;;;;17.78;87.49;101697.75;4843775;29;20110;-80
2021/08/12 05:42:30;;;;;;;4.88;2.03;;;;;;;17.79;87.24;101689.38;4827402;29;20067;-79
2021/08/12 05:44:55;;;;;;;3.40;1.77;;;;;;;17.82;87.38;101688.94;4827685;29;20030;-80
2021/08/12 05:47:21;;;;;;;6.55;1.90;;;;;;;17.83;87.27;101687.03;4826080;29;20026;-80
2021/08/12 05:49:46;;;;;;;3.30;2.00;;;;;;;17.88;87.36;101697.22;4842785;29;20076;-79
2021/08/12 05:52:11;;;;;;;5.63;2.28;;;;;;;17.90;87.24;101695.97;4835988;29;20044;-80
2021/08/12 05:54:37;;;;;;;3.22;2.15;;;;;;;17.86;87.20;101699.38;4843800;29;20127;-80
2021/08/12 05:57:02;;;;;;;3.55;1.98;;;;;;;17.89;87.39;101690.75;4827623;29;20176;-80
2021/08/12 05:59:28;;;;;;;3.30;1.98;;;;;;;17.94;87.28;101699.06;4838864;29;20042;-80
2021/08/12 06:01:53;;;;;;;3.25;1.98;;;;;;;17.84;87.52;101681.34;4842005;29;20042;-79
2021/08/12 06:04:19;;;;;;;5.43;2.00;;;;;;;17.93;87.33;101686.50;4827406;29;20038;-79
2021/08/12 06:06:45;;;;;;;3.55;1.85;;;;;;;17.96;87.43;101680.63;4848599;29;20033;-78
2021/08/12 06:09:10;;;;;;;5.35;2.00;;;;;;;17.99;87.36;101683.72;4848324;29;20491;-80
2021/08/12 06:11:36;;;;;;;4.63;2.20;;;;;;;18.04;87.44;101693.91;4845780;29;20037;-80
2021/08/12 06:14:01;;;;;;;3.90;2.00;;;;;;;18.02;87.46;101694.16;4853349;29;20064;-79
2021/08/12 06:16:27;;;;;;;4.90;2.10;;;;;;;18.07;87.42;101701.63;4863893;29;20037;-79
2021/08/12 06:18:52;;;;;;;2.72;1.90;;;;;;;18.06;87.46;101699.97;4858201;29;20120;-79
2021/08/12 06:21:20;;;;;;;3.30;2.00;;;;;;;18.10;87.39;101712.06;4852546;29;20113;-79
2021/08/12 06:23:45;;;;;;;4.07;2.10;;;;;;;18.11;87.42;101697.38;4842352;29;20411;-80
2021/08/12 06:26:11;;;;;;;4.78;2.10;;;;;;;18.21;87.38;101703.16;4844788;29;20121;-79
2021/08/12 06:28:36;;;;;;;3.10;2.13;;;;;;;18.19;87.21;101696.28;4845739;29;20109;-79
2021/08/12 06:31:01;;;;;;;4.00;2.22;;;;;;;18.24;87.08;101708.13;4844825;29;20134;-80
2021/08/12 06:33:27;;;;;;;2.45;1.90;;;;;;;18.23;87.10;101700.19;4840287;29;20060;-79
2021/08/12 06:35:53;;;;;;;3.55;2.15;;;;;;;18.30;87.16;101707.22;4858348;29;20053;-79
2021/08/12 06:38:18;;;;;;;3.67;2.13;;;;;;;18.40;86.95;101703.94;4854825;29;20105;-79
2021/08/12 06:40:44;;;;;;;3.47;2.20;;;;;;;18.53;86.78;101702.94;4845704;29;20141;-78
2021/08/12 06:43:09;;;;;;;5.68;2.10;;;;;;;18.62;86.07;101712.47;4843090;29;20037;-79
2021/08/12 06:45:35;;;;;;;4.25;2.20;;;;;;;18.76;85.66;101704.97;4837352;29;20125;-79
2021/08/12 06:48:04;;;;;;;4.05;2.22;;;;;;;18.97;84.83;101700.88;4843747;29;20036;-79
2021/08/12 06:50:29;;;;;;;3.80;2.10;;;;;;;19.20;84.24;101703.69;4844194;29;20071;-79
2021/08/12 06:52:54;;;;;;;4.00;2.20;;;;;;;19.43;83.35;101710.22;4858487;29;20038;-79
2021/08/12 06:55:20;;;;;;;4.05;2.00;;;;;;;19.53;83.02;101702.28;4843331;29;20124;-79
2021/08/12 06:57:45;;;;;;;3.70;2.05;;;;;;;19.53;82.54;101698.72;4843656;29;20109;-80
2021/08/12 07:00:12;;;;;;;4.50;2.10;;;;;;;19.64;81.93;101690.56;4844193;29;20045;-79
2021/08/12 07:02:38;;;;;;;6.20;3.22;;;;;;;20.05;81.80;101713.31;4859079;29;20029;-79
2021/08/12 07:05:04;;;;;;;4.25;2.03;;;;;;;20.24;81.23;101685.84;4859990;29;20056;-79
2021/08/12 07:07:29;;;;;;;3.67;2.08;;;;;;;20.60;79.78;101703.81;4857406;29;20033;-79
2021/08/12 07:09:56;;;;;;;3.30;1.83;;;;;;;20.67;78.85;101712.69;4849177;29;20072;-79
2021/08/12 07:12:21;;;;;;;5.07;2.13;;;;;;;20.47;78.88;101713.09;4863128;29;20029;-78
2021/08/12 07:14:47;;;;;;;3.92;2.10;;;;;;;20.23;79.41;101712.34;4844288;29;20048;-79
2021/08/12 07:17:12;;;;;;;3.08;2.00;;;;;;;20.08;79.43;101712.84;4845094;29;20093;-78
2021/08/12 07:19:38;;;;;;;3.50;2.10;;;;;;;20.00;80.21;101710.50;4846037;29;20373;-78
2021/08/12 07:22:03;;;;;;;3.38;2.00;;;;;;;20.01;80.09;101714.88;4845088;29;20041;-83
2021/08/12 07:24:29;;;;;;;6.95;2.30;;;;;;;20.11;79.32;101715.09;4844529;29;20049;-79
2021/08/12 07:26:54;;;;;;;5.47;2.00;;;;;;;19.97;79.05;101710.97;4848041;29;20054;-79
2021/08/12 07:29:20;;;;;;;4.22;2.38;;;;;;;19.99;79.20;101708.81;4849899;29;20118;-78
2021/08/12 07:31:45;;;;;;;4.75;2.20;;;;;;;20.06;79.55;101714.16;4850440;29;20053;-78
2021/08/12 07:34:11;;;;;;;4.25;2.00;;;;;;;20.14;79.37;101717.34;4847716;29;20045;-78
2021/08/12 07:36:38;;;;;;;4.07;2.30;;;;;;;20.24;79.68;101716.72;4848045;29;20042;-78
2021/08/12 07:39:05;;;;;;;4.63;1.88;;;;;;;20.26;79.77;101711.00;4850467;29;20109;-77
2021/08/12 07:41:32;;;;;;;4.00;2.28;;;;;;;20.30;79.73;101726.72;4832590;29;20076;-79
2021/08/12 07:43:57;;;;;;;3.15;1.90;;;;;;;20.50;78.57;101722.72;4853857;29;20106;-79
2021/08/12 07:46:24;;;;;;;2.80;1.80;;;;;;;20.79;77.60;101718.09;4827272;29;20045;-79
2021/08/12 07:48:49;;;;;;;3.92;1.98;;;;;;;21.03;77.15;101714.19;4860545;29;20096;-79
2021/08/12 07:51:15;;;;;;;4.35;1.90;;;;;;;21.24;76.77;101720.81;4842803;29;20543;-79
2021/08/12 07:53:41;;;;;;;3.15;1.80;;;;;;;21.28;75.83;101724.72;4795749;29;20058;-79
2021/08/12 07:56:06;;;;;;;3.13;1.88;;;;;;;21.37;75.72;101727.91;4840219;29;20026;-78
2021/08/12 07:58:31;;;;;;;4.05;1.80;;;;;;;21.41;75.49;101729.06;4855474;29;20045;-78
2021/08/12 08:01:00;;;;;;;4.93;1.90;;;;;;;21.50;74.86;101724.84;4830240;29;20074;-79
2021/08/12 08:03:26;;;;;;;5.68;1.90;;;;;;;21.61;74.46;101730.47;4843001;29;20039;-80
2021/08/12 08:05:51;;;;;;;3.83;1.80;;;;;;;21.65;73.87;101729.72;4841131;29;20030;-79
2021/08/12 08:08:17;;;;;;;2.45;1.67;;;;;;;21.75;73.04;101729.03;4842306;29;20460;-79
2021/08/12 08:10:42;;;;;;;4.38;1.95;;;;;;;21.58;73.55;101727.16;4825008;29;20049;-79
2021/08/12 08:13:07;;;;;;;3.13;1.67;;;;;;;21.53;73.41;101732.56;4861706;29;20098;-79
2021/08/12 08:15:33;;;;;;;4.22;1.88;;;;;;;21.30;74.18;101729.97;4862898;29;20100;-79
2021/08/12 08:17:59;;;;;;;3.17;2.00;;;;;;;21.19;74.52;101728.13;4862172;29;20041;-78
2021/08/12 08:20:24;;;;;;;6.25;2.20;;;;;;;21.06;74.82;101738.31;4864897;29;20033;-79
2021/08/12 08:22:49;;;;;;;3.35;1.83;;;;;;;20.92;75.20;101753.38;4858258;29;20034;-78
2021/08/12 08:25:15;;;;;;;5.53;1.70;;;;;;;20.76;75.45;101740.47;4880290;29;20048;-79
2021/08/12 08:27:40;;;;;;;4.75;1.98;;;;;;;20.72;75.82;101745.59;4863717;29;20492;-79
2021/08/12 08:30:06;;;;;;;3.30;1.90;;;;;;;20.63;76.03;101756.13;4860897;29;20055;-78
2021/08/12 08:32:32;;;;;;;2.88;1.83;;;;;;;20.51;76.26;101752.56;4857246;29;20373;-78
2021/08/12 08:34:58;;;;;;;3.85;2.00;;;;;;;20.45;76.75;101756.25;4846095;29;20041;-78
2021/08/12 08:37:24;;;;;;;4.68;1.98;;;;;;;20.36;77.01;101763.16;4856536;29;20048;-78
2021/08/12 08:39:49;;;;;;;3.85;2.33;;;;;;;20.22;78.34;101748.94;4864446;29;20049;-78
2021/08/12 08:42:16;;;;;;;3.47;2.25;;;;;;;20.17;79.58;101759.75;4850898;29;20045;-78
2021/08/12 08:44:45;;;;;;;4.05;2.13;;;;;;;20.02;80.08;101745.75;4845970;29;20124;-78
2021/08/12 08:47:11;;;;;;;6.75;2.20;;;;;;;19.96;80.62;101747.53;4844373;29;20086;-78
2021/08/12 08:49:39;;;;;;;5.25;2.50;;;;;;;19.95;81.19;101754.06;4846158;29;20042;-78
2021/08/12 08:52:08;;;;;;;4.43;2.22;;;;;;;19.96;81.70;101753.00;4844527;29;20030;-79
2021/08/12 08:54:34;;;;;;;3.25;2.25;;;;;;;19.91;81.63;101745.53;4844732;29;20453;-78
2021/08/12 08:57:00;;;;;;;4.40;2.20;;;;;;;19.92;81.96;101749.91;4827566;29;20072;-79
2021/08/12 08:59:26;;;;;;;3.38;2.20;;;;;;;19.98;81.67;101756.34;4853317;29;20058;-78
2021/08/12 09:01:52;;;;;;;3.78;2.25;;;;;;;19.98;81.88;101755.50;4842769;29;20411;-79
2021/08/12 09:04:18;;;;;;;5.05;2.13;;;;;;;20.04;82.13;101766.31;4844870;29;20082;-78
2021/08/12 09:06:43;;;;;;;5.28;2.25;;;;;;;20.16;82.82;101769.00;4845614;29;20034;-79
2021/08/12 09:09:10;;;;;;;2.80;2.17;;;;;;;20.30;82.88;101775.06;4845820;29;20048;-79
2021/08/12 09:11:36;;;;;;;6.63;2.90;;;;;;;20.33;82.61;101780.03;4847698;29;20034;-80
2021/08/12 09:14:28;;;;;;;6.50;2.55;;;;;;;20.33;82.44;101777.31;4852990;29;20498;-78
2021/08/12 09:16:54;;;;;;;6.20;2.60;;;;;;;20.35;82.13;101772.44;4826820;29;20370;-78
2021/08/12 09:19:23;;;;;;;5.25;2.10;;;;;;;20.44;81.53;101778.38;4826792;29;20034;-78
2021/08/12 09:21:53;;;;;;;5.45;2.10;;;;;;;20.27;81.51;101759.97;4843869;29;20391;-77
2021/08/12 09:24:19;;;;;;;3.42;2.25;;;;;;;20.38;81.48;101777.44;4842697;29;20025;-79
2021/08/12 09:26:46;;;;;;;5.90;2.33;;;;;;;20.33;81.13;101777.31;4842786;29;20041;-78
2021/08/12 09:29:25;;;;;;;4.47;2.10;;;;;;;20.46;81.11;101782.50;4840460;29;20500;-78
2021/08/12 09:32:01;;;;;;;5.75;2.20;;;;;;;20.68;80.80;101788.19;4841607;29;20110;-79
2021/08/12 09:34:47;;;;;;;4.13;2.22;;;;;;;20.98;80.06;101782.47;4838920;29;20461;-79
2021/08/12 09:37:13;;;;;;;3.03;2.10;;;;;;;21.20;78.89;101790.00;4838881;29;20142;-79
2021/08/12 09:39:41;;;;;;;9.75;4.22;;;;;;;21.30;78.29;101795.66;4842316;29;20034;-79
2021/08/12 09:42:08;;;;;;;6.68;3.22;;;;;;;21.51;77.48;101785.91;4842414;29;20551;-79
2021/08/12 09:44:43;;;;;;;2.78;2.20;;;;;;;21.54;76.59;101786.25;4844159;29;20484;-79
2021/08/12 09:47:28;;;;;;;4.85;2.20;;;;;;;21.52;76.52;101782.09;4840430;29;20030;-77
2021/08/12 09:49:59;;;;;;;5.70;2.13;;;;;;;21.38;76.30;101764.34;4842944;29;20030;-79
2021/08/12 09:52:29;;;;;;;5.25;2.00;;;;;;;21.38;75.99;101776.13;4843561;29;20038;-79
2021/08/12 09:55:22;;;;;;;4.35;2.00;;;;;;;21.18;75.84;101771.09;4843603;29;20053;-80
2021/08/12 09:57:53;;;;;;;3.22;1.77;;;;;;;21.15;75.72;101777.03;4843746;29;20045;-79
2021/08/12 10:00:24;;;;;;;4.65;2.05;;;;;;;21.16;75.80;101783.34;4844724;29;20041;-79
2021/08/12 10:02:50;;;;;;;3.95;1.92;;;;;;;21.17;75.43;101787.75;4843325;29;20117;-78
2021/08/12 10:05:16;;;;;;;2.38;1.80;;;;;;;21.17;75.43;101782.28;4839327;29;20150;-80
2021/08/12 10:07:44;;;;;;;5.63;2.20;;;;;;;21.27;75.54;101788.78;4822230;29;20099;-79
2021/08/12 10:10:18;;;;;;;3.13;1.83;;;;;;;21.38;75.32;101769.81;4839955;29;20205;-79
2021/08/12 10:13:02;;;;;;;3.08;1.90;;;;;;;21.29;75.11;101775.69;4851158;29;20038;-79
2021/08/12 10:15:33;;;;;;;3.33;1.80;;;;;;;21.24;75.01;101761.06;4855145;29;20037;-80
2021/08/12 10:18:02;;;;;;;3.67;2.00;;;;;;;21.29;73.71;101778.41;4844808;29;20026;-78
2021/08/12 10:20:31;;;;;;;3.63;1.90;;;;;;;21.20;72.42;101776.31;4850100;29;20033;-79
2021/08/12 10:22:58;;;;;;;3.85;1.80;;;;;;;21.24;72.26;101780.22;4845256;29;20029;-80
2021/08/12 10:25:25;;;;;;;5.85;2.35;;;;;;;21.32;72.72;101775.19;4844864;29;20042;-79
2021/08/12 10:27:56;;;;;;;4.47;1.88;;;;;;;21.42;73.16;101780.00;4843934;29;20038;-80
2021/08/12 10:30:24;;;;;;;3.58;1.83;;;;;;;21.38;73.32;101767.06;4844605;29;20033;-79
2021/08/12 10:32:58;;;;;;;3.88;2.08;;;;;;;21.58;73.68;101779.19;4850202;29;20063;-78
2021/08/12 10:35:26;;;;;;;3.35;1.70;;;;;;;21.53;73.56;101779.13;4837624;29;20058;-78
2021/08/12 10:37:54;;;;;;;2.97;2.00;;;;;;;21.53;73.02;101784.59;4845508;29;20040;-80
2021/08/12 10:40:21;;;;;;;3.00;1.90;;;;;;;21.53;73.18;101784.59;4843128;29;20086;-79
2021/08/12 10:42:48;;;;;;;4.10;1.67;;;;;;;21.56;72.72;101786.84;4844846;29;20042;-79
2021/08/12 10:45:18;;;;;;;3.45;1.80;;;;;;;21.56;72.49;101795.06;4843657;29;20061;-79
2021/08/12 10:47:55;;;;;;;5.22;2.13;;;;;;;21.41;71.93;101759.19;4844749;29;20033;-79
2021/08/12 10:50:32;;;;;;;3.17;1.60;;;;;;;21.44;72.24;101786.09;4839675;29;20046;-78
2021/08/12 10:53:21;;;;;;;11.63;3.35;;;;;;;21.39;71.83;101782.41;4843572;29;20034;-79
2021/08/12 10:56:04;;;;;;;10.52;3.00;;;;;;;21.01;71.50;101762.84;4840403;29;20038;-78
2021/08/12 10:58:29;;;;;;;7.00;2.45;;;;;;;21.16;72.27;101788.81;4852775;29;20035;-79
2021/08/12 11:00:58;;;;;;;5.43;2.15;;;;;;;21.02;72.60;101775.44;4830176;29;20026;-79
2021/08/12 11:03:33;;;;;;;4.28;1.80;;;;;;;21.23;71.85;101792.25;4843148;29;20026;-79
2021/08/12 11:06:08;;;;;;;4.82;1.75;;;;;;;21.29;71.75;101781.16;4839775;29;20038;-79
2021/08/12 11:08:54;;;;;;;4.68;1.70;;;;;;;21.37;70.72;101779.94;4843398;29;20037;-80
2021/08/12 11:11:22;;;;;;;3.85;1.60;;;;;;;21.54;69.76;101779.94;4841663;29;20054;-80
2021/08/12 11:13:49;;;;;;;7.25;1.65;;;;;;;21.60;69.77;101789.09;4857148;29;20682;-79
2021/08/12 11:16:15;;;;;;;3.85;1.90;;;;;;;21.65;69.81;101784.50;4852025;29;20029;-80
2021/08/12 11:18:45;;;;;;;4.80;2.00;;;;;;;21.70;69.80;101778.28;4860864;29;20097;-79
2021/08/12 11:21:32;;;;;;;4.45;1.75;;;;;;;21.81;70.05;101788.31;4850926;29;20030;-80
2021/08/12 11:23:59;;;;;;;4.32;2.17;;;;;;;21.82;70.74;101787.25;4843196;29;20110;-79
2021/08/12 11:26:25;;;;;;;5.90;2.38;;;;;;;21.92;70.61;101781.06;4840279;29;20049;-80